sensor_id;sensor_type;location;lat;lon;timestamp;pressure;altitude;pressure_sealevel;temperature;humidity
5609;BME280;2826;51.354;9.588;2023-04-03T00:00:34;99324.63;;;4.88;52.66
5609;BME280;2826;51.354;9.588;2023-04-03T00:03:00;99327.22;;;4.93;52.31
5609;BME280;2826;51.354;9.588;2023-04-03T00:05:27;99329.78;;;4.88;52.53
5609;BME280;2826;51.354;9.588;2023-04-03T00:07:55;99332.34;;;4.82;52.64
5609;BME280;2826;51.354;9.588;2023-04-03T00:10:22;99336.59;;;4.74;52.92
5609;BME280;2826;51.354;9.588;2023-04-03T00:12:49;99330.56;;;4.65;53.25
5609;BME280;2826;51.354;9.588;2023-04-03T00:15:15;99336.56;;;4.64;53.38
5609;BME280;2826;51.354;9.588;2023-04-03T00:17:42;99332.25;;;4.58;53.83
5609;BME280;2826;51.354;9.588;2023-04-03T00:20:09;99340.78;;;4.51;53.55
5609;BME280;2826;51.354;9.588;2023-04-03T00:22:36;99330.47;;;4.43;54.16
5609;BME280;2826;51.354;9.588;2023-04-03T00:25:04;99341.59;;;4.38;54.19
5609;BME280;2826;51.354;9.588;2023-04-03T00:27:31;99349.28;;;4.33;54.38
5609;BME280;2826;51.354;9.588;2023-04-03T00:29:58;99350.13;;;4.32;54.41
5609;BME280;2826;51.354;9.588;2023-04-03T00:32:26;99344.09;;;4.27;54.35
5609;BME280;2826;51.354;9.588;2023-04-03T00:34:53;99348.34;;;4.22;54.79
5609;BME280;2826;51.354;9.588;2023-04-03T00:37:20;99344.94;;;4.20;55.08
5609;BME280;2826;51.354;9.588;2023-04-03T00:39:46;99353.50;;;4.18;55.28
5609;BME280;2826;51.354;9.588;2023-04-03T00:42:14;99353.47;;;4.15;55.45
5609;BME280;2826;51.354;9.588;2023-04-03T00:48:01;99361.13;;;4.06;56.95
5609;BME280;2826;51.354;9.588;2023-04-03T00:50:32;99355.16;;;4.09;57.05
5609;BME280;2826;51.354;9.588;2023-04-03T00:53:01;99356.81;;;4.03;57.57
5609;BME280;2826;51.354;9.588;2023-04-03T00:55:28;99349.06;;;3.96;57.84
5609;BME280;2826;51.354;9.588;2023-04-03T00:58:00;99361.88;;;3.92;58.89
5609;BME280;2826;51.354;9.588;2023-04-03T01:00:28;99360.16;;;3.90;59.25
5609;BME280;2826;51.354;9.588;2023-04-03T01:02:54;99360.09;;;3.84;59.42
5609;BME280;2826;51.354;9.588;2023-04-03T01:05:21;99358.41;;;3.84;59.63
5609;BME280;2826;51.354;9.588;2023-04-03T01:07:49;99327.44;;;3.56;60.34
5609;BME280;2826;51.354;9.588;2023-04-03T01:10:18;99357.44;;;3.66;61.08
5609;BME280;2826;51.354;9.588;2023-04-03T01:12:48;99365.06;;;3.62;61.18
5609;BME280;2826;51.354;9.588;2023-04-03T01:15:20;99350.53;;;3.61;61.42
5609;BME280;2826;51.354;9.588;2023-04-03T01:17:49;99357.38;;;3.60;61.77
5609;BME280;2826;51.354;9.588;2023-04-03T01:23:29;99371.88;;;3.57;62.34
5609;BME280;2826;51.354;9.588;2023-04-03T01:25:59;99363.31;;;3.53;62.59
5609;BME280;2826;51.354;9.588;2023-04-03T01:28:28;99353.00;;;3.45;62.27
5609;BME280;2826;51.354;9.588;2023-04-03T01:31:00;99364.94;;;3.45;63.14
5609;BME280;2826;51.354;9.588;2023-04-03T01:33:34;99364.06;;;3.44;62.88
5609;BME280;2826;51.354;9.588;2023-04-03T01:36:02;99363.28;;;3.51;62.72
5609;BME280;2826;51.354;9.588;2023-04-03T01:38:29;99352.91;;;3.36;63.45
5609;BME280;2826;51.354;9.588;2023-04-03T01:40:56;99365.75;;;3.39;63.39
5609;BME280;2826;51.354;9.588;2023-04-03T01:43:22;99368.28;;;3.34;63.77
5609;BME280;2826;51.354;9.588;2023-04-03T01:45:49;99367.38;;;3.32;63.76
5609;BME280;2826;51.354;9.588;2023-04-03T01:48:17;99364.81;;;3.29;64.10
5609;BME280;2826;51.354;9.588;2023-04-03T01:50:45;99363.03;;;3.23;64.33
5609;BME280;2826;51.354;9.588;2023-04-03T01:53:13;99364.75;;;3.24;64.25
5609;BME280;2826;51.354;9.588;2023-04-03T01:55:40;99379.28;;;3.24;64.43
5609;BME280;2826;51.354;9.588;2023-04-03T01:58:06;99386.06;;;3.19;64.81
5609;BME280;2826;51.354;9.588;2023-04-03T02:00:33;99373.25;;;3.19;64.88
5609;BME280;2826;51.354;9.588;2023-04-03T02:03:00;99374.97;;;3.21;64.64
5609;BME280;2826;51.354;9.588;2023-04-03T02:05:26;99372.38;;;3.17;65.08
5609;BME280;2826;51.354;9.588;2023-04-03T02:07:54;99374.09;;;3.18;64.75
5609;BME280;2826;51.354;9.588;2023-04-03T02:10:21;99376.59;;;3.10;65.15
5609;BME280;2826;51.354;9.588;2023-04-03T02:12:48;99369.66;;;3.03;65.63
5609;BME280;2826;51.354;9.588;2023-04-03T02:15:15;99378.97;;;2.94;65.73
5609;BME280;2826;51.354;9.588;2023-04-03T02:17:41;99369.56;;;2.92;65.89
5609;BME280;2826;51.354;9.588;2023-04-03T02:20:08;99372.88;;;2.83;66.47
5609;BME280;2826;51.354;9.588;2023-04-03T02:22:35;99372.03;;;2.84;66.18
5609;BME280;2826;51.354;9.588;2023-04-03T02:25:04;99370.22;;;2.75;66.94
5609;BME280;2826;51.354;9.588;2023-04-03T02:27:30;99370.16;;;2.69;67.17
5609;BME280;2826;51.354;9.588;2023-04-03T02:29:57;99371.84;;;2.68;66.93
5609;BME280;2826;51.354;9.588;2023-04-03T02:32:24;99373.63;;;2.71;66.77
5609;BME280;2826;51.354;9.588;2023-04-03T02:34:51;99345.22;;;2.54;66.62
5609;BME280;2826;51.354;9.588;2023-04-03T02:37:17;99374.44;;;2.70;66.74
5609;BME280;2826;51.354;9.588;2023-04-03T02:39:45;99376.97;;;2.68;66.81
5609;BME280;2826;51.354;9.588;2023-04-03T02:42:14;99366.47;;;2.48;66.59
5609;BME280;2826;51.354;9.588;2023-04-03T02:44:40;99388.03;;;2.66;66.62
5609;BME280;2826;51.354;9.588;2023-04-03T02:47:09;99388.88;;;2.65;66.36
5609;BME280;2826;51.354;9.588;2023-04-03T02:49:35;99393.88;;;2.54;66.88
5609;BME280;2826;51.354;9.588;2023-04-03T02:52:02;99398.97;;;2.52;67.10
5609;BME280;2826;51.354;9.588;2023-04-03T02:54:29;99395.59;;;2.55;67.13
5609;BME280;2826;51.354;9.588;2023-04-03T02:56:59;99392.19;;;2.54;66.73
5609;BME280;2826;51.354;9.588;2023-04-03T02:59:27;99396.38;;;2.49;67.39
5609;BME280;2826;51.354;9.588;2023-04-03T03:01:55;99389.53;;;2.50;67.53
5609;BME280;2826;51.354;9.588;2023-04-03T03:04:22;99392.94;;;2.47;67.41
5609;BME280;2826;51.354;9.588;2023-04-03T03:06:48;99397.22;;;2.50;67.24
5609;BME280;2826;51.354;9.588;2023-04-03T03:09:17;99398.94;;;2.47;67.21
5609;BME280;2826;51.354;9.588;2023-04-03T03:11:43;99401.41;;;2.43;67.81
5609;BME280;2826;51.354;9.588;2023-04-03T03:14:10;99393.69;;;2.41;67.65
5609;BME280;2826;51.354;9.588;2023-04-03T03:16:38;99396.22;;;2.37;68.17
5609;BME280;2826;51.354;9.588;2023-04-03T03:19:04;99397.03;;;2.34;68.31
5609;BME280;2826;51.354;9.588;2023-04-03T03:21:32;99389.31;;;2.31;68.46
5609;BME280;2826;51.354;9.588;2023-04-03T03:23:58;99391.00;;;2.30;68.77
5609;BME280;2826;51.354;9.588;2023-04-03T03:26:26;99387.63;;;2.31;68.48
5609;BME280;2826;51.354;9.588;2023-04-03T03:28:54;99396.13;;;2.30;68.40
5609;BME280;2826;51.354;9.588;2023-04-03T03:31:20;99396.13;;;2.29;68.38
5609;BME280;2826;51.354;9.588;2023-04-03T03:33:49;99394.38;;;2.26;68.24
5609;BME280;2826;51.354;9.588;2023-04-03T03:36:16;99399.41;;;2.21;68.44
5609;BME280;2826;51.354;9.588;2023-04-03T03:38:43;99401.91;;;2.17;68.57
5609;BME280;2826;51.354;9.588;2023-04-03T03:41:09;99397.53;;;2.08;68.81
5609;BME280;2826;51.354;9.588;2023-04-03T03:43:36;99399.25;;;2.09;69.44
5609;BME280;2826;51.354;9.588;2023-04-03T03:46:05;99402.66;;;2.09;68.97
5609;BME280;2826;51.354;9.588;2023-04-03T03:48:32;99397.50;;;2.06;69.29
5609;BME280;2826;51.354;9.588;2023-04-03T03:51:00;99393.97;;;1.98;69.70
5609;BME280;2826;51.354;9.588;2023-04-03T03:53:30;99394.81;;;1.97;69.89
5609;BME280;2826;51.354;9.588;2023-04-03T03:56:02;99394.72;;;1.92;70.46
5609;BME280;2826;51.354;9.588;2023-04-03T03:58:29;99397.19;;;1.86;70.93
5609;BME280;2826;51.354;9.588;2023-04-03T04:00:56;99392.97;;;1.90;70.87
5609;BME280;2826;51.354;9.588;2023-04-03T04:03:23;99395.47;;;1.85;70.83
5609;BME280;2826;51.354;9.588;2023-04-03T04:05:50;99397.16;;;1.85;70.79
5609;BME280;2826;51.354;9.588;2023-04-03T04:08:18;99388.44;;;1.70;71.45
5609;BME280;2826;51.354;9.588;2023-04-03T04:10:45;99384.84;;;1.60;71.32
5609;BME280;2826;51.354;9.588;2023-04-03T04:13:14;99414.94;;;1.75;71.15
5609;BME280;2826;51.354;9.588;2023-04-03T04:15:41;99411.44;;;1.70;71.27
5609;BME280;2826;51.354;9.588;2023-04-03T04:18:08;99416.47;;;1.65;71.61
5609;BME280;2826;51.354;9.588;2023-04-03T04:20:36;99425.03;;;1.67;71.37
5609;BME280;2826;51.354;9.588;2023-04-03T04:23:03;99419.75;;;1.56;71.89
5609;BME280;2826;51.354;9.588;2023-04-03T04:25:31;99383.50;;;1.32;71.78
5609;BME280;2826;51.354;9.588;2023-04-03T04:27:58;99416.22;;;1.50;72.02
5609;BME280;2826;51.354;9.588;2023-04-03T04:30:25;99417.84;;;1.45;72.28
5609;BME280;2826;51.354;9.588;2023-04-03T04:32:54;99424.63;;;1.44;72.31
5609;BME280;2826;51.354;9.588;2023-04-03T04:35:21;99426.34;;;1.45;72.11
5609;BME280;2826;51.354;9.588;2023-04-03T04:37:50;99427.22;;;1.46;72.28
5609;BME280;2826;51.354;9.588;2023-04-03T04:40:17;99428.91;;;1.45;72.38
5609;BME280;2826;51.354;9.588;2023-04-03T04:42:45;99425.63;;;1.52;72.00
5609;BME280;2826;51.354;9.588;2023-04-03T04:45:11;99438.38;;;1.51;71.80
5609;BME280;2826;51.354;9.588;2023-04-03T04:47:41;99430.53;;;1.40;72.13
5609;BME280;2826;51.354;9.588;2023-04-03T04:50:09;99435.00;;;1.50;71.76
5609;BME280;2826;51.354;9.588;2023-04-03T04:52:36;99432.41;;;1.49;71.79
5609;BME280;2826;51.354;9.588;2023-04-03T04:55:05;99437.53;;;1.52;71.61
5609;BME280;2826;51.354;9.588;2023-04-03T04:57:32;99441.03;;;1.55;71.50
5609;BME280;2826;51.354;9.588;2023-04-03T05:00:00;99437.50;;;1.49;71.37
5609;BME280;2826;51.354;9.588;2023-04-03T05:02:28;99445.22;;;1.50;71.23
5609;BME280;2826;51.354;9.588;2023-04-03T05:04:56;99421.94;;;1.36;70.73
5609;BME280;2826;51.354;9.588;2023-04-03T05:07:26;99443.53;;;1.52;70.59
5609;BME280;2826;51.354;9.588;2023-04-03T05:09:53;99449.34;;;1.45;70.15
5609;BME280;2826;51.354;9.588;2023-04-03T05:12:20;99442.66;;;1.52;70.18
5609;BME280;2826;51.354;9.588;2023-04-03T05:14:52;99452.88;;;1.52;69.74
5609;BME280;2826;51.354;9.588;2023-04-03T05:17:21;99457.84;;;1.42;69.60
5609;BME280;2826;51.354;9.588;2023-04-03T05:19:51;99458.81;;;1.49;69.74
5609;BME280;2826;51.354;9.588;2023-04-03T05:22:20;99464.00;;;1.54;69.49
5609;BME280;2826;51.354;9.588;2023-04-03T05:24:47;99470.94;;;1.60;69.18
5609;BME280;2826;51.354;9.588;2023-04-03T05:27:14;99467.59;;;1.65;68.91
5609;BME280;2826;51.354;9.588;2023-04-03T05:29:45;99469.31;;;1.65;68.84
5609;BME280;2826;51.354;9.588;2023-04-03T05:32:18;99474.50;;;1.68;68.96
5609;BME280;2826;51.354;9.588;2023-04-03T05:34:50;99466.00;;;1.72;68.62
5609;BME280;2826;51.354;9.588;2023-04-03T05:37:18;99472.09;;;1.77;68.52
5609;BME280;2826;51.354;9.588;2023-04-03T05:39:45;99478.09;;;1.79;68.13
5609;BME280;2826;51.354;9.588;2023-04-03T05:42:12;99473.03;;;1.82;68.32
5609;BME280;2826;51.354;9.588;2023-04-03T05:44:39;99480.81;;;1.90;68.37
5609;BME280;2826;51.354;9.588;2023-04-03T05:47:06;99478.34;;;1.95;67.97
5609;BME280;2826;51.354;9.588;2023-04-03T05:49:33;99475.03;;;1.99;67.82
5609;BME280;2826;51.354;9.588;2023-04-03T05:52:01;99455.22;;;1.89;67.42
5609;BME280;2826;51.354;9.588;2023-04-03T05:54:30;99482.78;;;2.05;67.35
5609;BME280;2826;51.354;9.588;2023-04-03T05:57:04;99480.38;;;2.15;67.02
5609;BME280;2826;51.354;9.588;2023-04-03T05:59:31;99464.78;;;2.01;66.18
5609;BME280;2826;51.354;9.588;2023-04-03T06:01:59;99479.53;;;2.16;66.11
5609;BME280;2826;51.354;9.588;2023-04-03T06:04:26;99490.00;;;2.31;65.97
5609;BME280;2826;51.354;9.588;2023-04-03T06:06:56;99493.34;;;2.27;65.07
5609;BME280;2826;51.354;9.588;2023-04-03T06:09:27;99490.19;;;2.42;65.18
5609;BME280;2826;51.354;9.588;2023-04-03T06:11:54;99487.66;;;2.47;64.41
5609;BME280;2826;51.354;9.588;2023-04-03T06:14:23;99496.56;;;2.71;64.37
5609;BME280;2826;51.354;9.588;2023-04-03T06:16:49;99497.53;;;2.81;64.04
5609;BME280;2826;51.354;9.588;2023-04-03T06:19:16;99495.03;;;2.85;63.44
5609;BME280;2826;51.354;9.588;2023-04-03T06:21:46;99487.22;;;2.76;63.19
5609;BME280;2826;51.354;9.588;2023-04-03T06:24:15;99490.03;;;2.95;62.54
5609;BME280;2826;51.354;9.588;2023-04-03T06:26:43;99496.94;;;3.04;62.43
5609;BME280;2826;51.354;9.588;2023-04-03T06:29:10;99499.66;;;3.14;62.42
5609;BME280;2826;51.354;9.588;2023-04-03T06:31:37;99510.88;;;3.23;62.09
5609;BME280;2826;51.354;9.588;2023-04-03T06:34:04;99505.72;;;3.23;61.50
5609;BME280;2826;51.354;9.588;2023-04-03T06:36:31;99508.25;;;3.20;61.17
5609;BME280;2826;51.354;9.588;2023-04-03T06:38:58;99514.19;;;3.17;61.30
5609;BME280;2826;51.354;9.588;2023-04-03T06:41:24;99496.31;;;3.22;60.94
5609;BME280;2826;51.354;9.588;2023-04-03T06:43:53;99520.56;;;3.49;60.47
5609;BME280;2826;51.354;9.588;2023-04-03T06:46:22;99524.19;;;3.68;60.49
5609;BME280;2826;51.354;9.588;2023-04-03T06:48:49;99518.28;;;3.74;59.77
5609;BME280;2826;51.354;9.588;2023-04-03T06:51:18;99532.00;;;3.81;58.99
5609;BME280;2826;51.354;9.588;2023-04-03T06:53:46;99536.28;;;3.82;59.20
5609;BME280;2826;51.354;9.588;2023-04-03T06:56:13;99537.25;;;3.91;59.09
5609;BME280;2826;51.354;9.588;2023-04-03T06:58:40;99540.75;;;4.03;58.55
5609;BME280;2826;51.354;9.588;2023-04-03T07:01:09;99535.59;;;3.97;58.17
5609;BME280;2826;51.354;9.588;2023-04-03T07:03:36;99542.47;;;4.04;57.84
5609;BME280;2826;51.354;9.588;2023-04-03T07:06:04;99558.88;;;4.17;57.78
5609;BME280;2826;51.354;9.588;2023-04-03T07:08:31;99560.59;;;4.18;57.08
5609;BME280;2826;51.354;9.588;2023-04-03T07:10:58;99530.63;;;4.15;56.80
5609;BME280;2826;51.354;9.588;2023-04-03T07:13:25;99535.03;;;4.34;56.71
5609;BME280;2826;51.354;9.588;2023-04-03T07:15:52;99560.88;;;4.55;55.86
5609;BME280;2826;51.354;9.588;2023-04-03T07:18:20;99566.84;;;4.51;55.62
5609;BME280;2826;51.354;9.588;2023-04-03T07:20:47;99565.13;;;4.52;55.18
5609;BME280;2826;51.354;9.588;2023-04-03T07:23:14;99552.22;;;4.41;55.08
5609;BME280;2826;51.354;9.588;2023-04-03T07:25:42;99572.94;;;4.67;55.04
5609;BME280;2826;51.354;9.588;2023-04-03T07:28:10;99567.06;;;4.84;55.19
5609;BME280;2826;51.354;9.588;2023-04-03T07:30:42;99568.84;;;4.97;54.31
5609;BME280;2826;51.354;9.588;2023-04-03T07:33:09;99571.41;;;4.91;52.68
5609;BME280;2826;51.354;9.588;2023-04-03T07:35:37;99568.03;;;5.03;52.77
5609;BME280;2826;51.354;9.588;2023-04-03T07:38:03;99580.09;;;5.17;52.37
5609;BME280;2826;51.354;9.588;2023-04-03T07:40:30;99580.97;;;5.17;51.74
5609;BME280;2826;51.354;9.588;2023-04-03T07:42:57;99576.78;;;5.35;51.49
5609;BME280;2826;51.354;9.588;2023-04-03T07:45:32;99580.22;;;5.43;51.13
5609;BME280;2826;51.354;9.588;2023-04-03T07:48:00;99581.06;;;5.34;50.11
5609;BME280;2826;51.354;9.588;2023-04-03T07:50:27;99583.69;;;5.52;50.00
5609;BME280;2826;51.354;9.588;2023-04-03T07:52:57;99581.13;;;5.61;49.85
5609;BME280;2826;51.354;9.588;2023-04-03T07:55:23;99585.53;;;5.82;49.13
5609;BME280;2826;51.354;9.588;2023-04-03T07:57:50;99589.78;;;5.79;48.07
5609;BME280;2826;51.354;9.588;2023-04-03T08:00:18;99586.34;;;5.69;47.28
5609;BME280;2826;51.354;9.588;2023-04-03T08:02:44;99588.06;;;5.78;47.23
5609;BME280;2826;51.354;9.588;2023-04-03T08:05:16;99585.53;;;5.93;46.73
5609;BME280;2826;51.354;9.588;2023-04-03T08:07:42;99581.25;;;5.95;45.65
5609;BME280;2826;51.354;9.588;2023-04-03T08:10:11;99586.47;;;6.09;46.46
5609;BME280;2826;51.354;9.588;2023-04-03T08:12:37;99583.03;;;6.18;46.00
5609;BME280;2826;51.354;9.588;2023-04-03T08:15:05;99583.88;;;6.05;45.28
5609;BME280;2826;51.354;9.588;2023-04-03T08:17:33;99587.31;;;6.10;45.17
5609;BME280;2826;51.354;9.588;2023-04-03T08:20:01;99578.69;;;6.00;44.80
5609;BME280;2826;51.354;9.588;2023-04-03T08:22:27;99598.50;;;6.20;44.39
5609;BME280;2826;51.354;9.588;2023-04-03T08:24:54;99588.16;;;6.17;43.90
5609;BME280;2826;51.354;9.588;2023-04-03T08:27:22;99593.31;;;6.15;44.26
5609;BME280;2826;51.354;9.588;2023-04-03T08:29:49;99569.28;;;6.14;44.48
5609;BME280;2826;51.354;9.588;2023-04-03T08:32:16;99597.63;;;6.52;44.49
5609;BME280;2826;51.354;9.588;2023-04-03T08:34:43;99594.19;;;6.75;44.21
5609;BME280;2826;51.354;9.588;2023-04-03T08:37:09;99593.31;;;6.77;44.29
5609;BME280;2826;51.354;9.588;2023-04-03T08:39:36;99599.34;;;6.89;44.27
5609;BME280;2826;51.354;9.588;2023-04-03T08:42:05;99601.91;;;6.87;43.56
5609;BME280;2826;51.354;9.588;2023-04-03T08:44:46;99604.50;;;6.86;43.81
5609;BME280;2826;51.354;9.588;2023-04-03T08:47:21;99587.28;;;6.97;43.59
5609;BME280;2826;51.354;9.588;2023-04-03T08:49:52;99601.00;;;7.09;43.03
5609;BME280;2826;51.354;9.588;2023-04-03T08:52:23;99601.03;;;7.05;43.29
5609;BME280;2826;51.354;9.588;2023-04-03T08:54:55;99587.28;;;7.08;43.31
5609;BME280;2826;51.354;9.588;2023-04-03T08:57:28;99588.97;;;7.11;43.67
5609;BME280;2826;51.354;9.588;2023-04-03T08:59:58;99594.97;;;7.14;42.28
5609;BME280;2826;51.354;9.588;2023-04-03T09:02:29;99589.84;;;7.03;42.72
5609;BME280;2826;51.354;9.588;2023-04-03T09:04:58;99594.13;;;7.09;42.53
5609;BME280;2826;51.354;9.588;2023-04-03T09:07:33;99589.81;;;7.17;43.09
5609;BME280;2826;51.354;9.588;2023-04-03T09:10:03;99570.00;;;7.29;42.83
5609;BME280;2826;51.354;9.588;2023-04-03T09:12:34;99588.81;;;7.59;42.16
5609;BME280;2826;51.354;9.588;2023-04-03T09:15:10;99585.56;;;7.01;42.01
5609;BME280;2826;51.354;9.588;2023-04-03T09:17:43;99588.94;;;7.32;42.20
5609;BME280;2826;51.354;9.588;2023-04-03T09:20:19;99591.50;;;7.31;42.22
5609;BME280;2826;51.354;9.588;2023-04-03T09:22:50;99584.63;;;7.27;41.66
5609;BME280;2826;51.354;9.588;2023-04-03T09:25:20;99589.88;;;6.96;41.29
5609;BME280;2826;51.354;9.588;2023-04-03T09:27:48;99589.03;;;6.92;41.63
5609;BME280;2826;51.354;9.588;2023-04-03T09:30:19;99583.03;;;6.76;41.71
5609;BME280;2826;51.354;9.588;2023-04-03T09:32:48;99586.47;;;6.81;42.22
5609;BME280;2826;51.354;9.588;2023-04-03T09:35:25;99589.03;;;6.90;41.61
5609;BME280;2826;51.354;9.588;2023-04-03T09:37:52;99588.16;;;6.79;40.97
5609;BME280;2826;51.354;9.588;2023-04-03T09:40:32;99581.25;;;6.95;40.79
5609;BME280;2826;51.354;9.588;2023-04-03T09:43:02;99580.31;;;7.35;41.98
5609;BME280;2826;51.354;9.588;2023-04-03T09:45:36;99581.78;;;7.91;41.58
5609;BME280;2826;51.354;9.588;2023-04-03T09:48:08;99580.75;;;8.17;42.12
5609;BME280;2826;51.354;9.588;2023-04-03T09:50:36;99589.09;;;8.52;40.13
5609;BME280;2826;51.354;9.588;2023-04-03T09:53:05;99559.69;;;8.67;39.67
5609;BME280;2826;51.354;9.588;2023-04-03T09:55:42;99582.59;;;9.04;38.99
5609;BME280;2826;51.354;9.588;2023-04-03T09:58:24;99535.44;;;8.77;40.10
5609;BME280;2826;51.354;9.588;2023-04-03T10:00:56;99573.81;;;9.18;39.97
5609;BME280;2826;51.354;9.588;2023-04-03T10:03:26;99572.09;;;9.18;38.45
5609;BME280;2826;51.354;9.588;2023-04-03T10:05:53;99579.63;;;9.38;38.71
5609;BME280;2826;51.354;9.588;2023-04-03T10:08:23;99571.75;;;9.49;38.22
5609;BME280;2826;51.354;9.588;2023-04-03T10:11:09;99574.47;;;9.37;37.25
5609;BME280;2826;51.354;9.588;2023-04-03T10:13:49;99584.94;;;9.29;37.96
5609;BME280;2826;51.354;9.588;2023-04-03T10:16:20;99575.25;;;9.45;38.14
5609;BME280;2826;51.354;9.588;2023-04-03T10:18:54;99578.09;;;9.22;38.06
5609;BME280;2826;51.354;9.588;2023-04-03T10:21:32;99580.22;;;8.82;37.55
5609;BME280;2826;51.354;9.588;2023-04-03T10:24:08;99567.50;;;8.59;38.70
5609;BME280;2826;51.354;9.588;2023-04-03T10:26:44;99574.56;;;8.38;38.46
5609;BME280;2826;51.354;9.588;2023-04-03T10:29:24;99579.06;;;8.06;38.39
5609;BME280;2826;51.354;9.588;2023-04-03T10:32:02;99566.22;;;7.98;38.78
5609;BME280;2826;51.354;9.588;2023-04-03T10:34:37;99575.59;;;8.10;40.19
5609;BME280;2826;51.354;9.588;2023-04-03T10:37:13;99568.66;;;8.19;39.63
5609;BME280;2826;51.354;9.588;2023-04-03T10:39:50;99572.03;;;8.29;39.78
5609;BME280;2826;51.354;9.588;2023-04-03T10:42:26;99570.41;;;8.17;39.34
5609;BME280;2826;51.354;9.588;2023-04-03T10:45:03;99551.66;;;7.90;39.64
5609;BME280;2826;51.354;9.588;2023-04-03T10:47:39;99555.13;;;7.84;40.32
5609;BME280;2826;51.354;9.588;2023-04-03T10:50:23;99553.47;;;7.72;40.45
5609;BME280;2826;51.354;9.588;2023-04-03T10:52:57;99552.56;;;7.78;40.06
5609;BME280;2826;51.354;9.588;2023-04-03T10:55:34;99561.13;;;7.84;40.00
5609;BME280;2826;51.354;9.588;2023-04-03T10:58:03;99563.72;;;7.84;40.27
5609;BME280;2826;51.354;9.588;2023-04-03T11:00:35;99554.31;;;7.76;40.73
5609;BME280;2826;51.354;9.588;2023-04-03T11:03:06;99556.97;;;7.60;40.40
5609;BME280;2826;51.354;9.588;2023-04-03T11:05:40;99538.94;;;7.49;39.94
5609;BME280;2826;51.354;9.588;2023-04-03T11:08:15;99550.94;;;7.61;40.50
5609;BME280;2826;51.354;9.588;2023-04-03T11:10:48;99542.44;;;7.40;40.47
5609;BME280;2826;51.354;9.588;2023-04-03T11:13:19;99542.38;;;7.54;40.76
5609;BME280;2826;51.354;9.588;2023-04-03T11:15:49;99548.38;;;7.61;41.45
5609;BME280;2826;51.354;9.588;2023-04-03T11:18:21;99540.59;;;7.64;39.79
5609;BME280;2826;51.354;9.588;2023-04-03T11:20:57;99539.75;;;7.65;39.50
5609;BME280;2826;51.354;9.588;2023-04-03T11:23:29;99535.53;;;7.49;39.69
5609;BME280;2826;51.354;9.588;2023-04-03T11:26:07;99541.50;;;7.54;39.99
5609;BME280;2826;51.354;9.588;2023-04-03T11:28:34;99538.09;;;7.50;40.90
5609;BME280;2826;51.354;9.588;2023-04-03T11:31:13;99533.72;;;7.60;41.11
5609;BME280;2826;51.354;9.588;2023-04-03T11:33:49;99534.41;;;7.90;40.33
5609;BME280;2826;51.354;9.588;2023-04-03T11:36:23;99534.41;;;7.95;39.65
5609;BME280;2826;51.354;9.588;2023-04-03T11:38:54;99532.56;;;8.11;40.25
5609;BME280;2826;51.354;9.588;2023-04-03T11:41:26;99528.59;;;8.73;39.45
5609;BME280;2826;51.354;9.588;2023-04-03T11:43:59;99528.00;;;9.26;39.45
5609;BME280;2826;51.354;9.588;2023-04-03T11:46:52;99520.19;;;9.92;37.70
5609;BME280;2826;51.354;9.588;2023-04-03T11:49:57;99515.78;;;10.54;36.69
5609;BME280;2826;51.354;9.588;2023-04-03T11:53:00;99501.97;;;10.99;37.16
5609;BME280;2826;51.354;9.588;2023-04-03T11:55:44;99500.16;;;11.45;35.33
5609;BME280;2826;51.354;9.588;2023-04-03T11:58:14;99504.34;;;11.53;35.35
5609;BME280;2826;51.354;9.588;2023-04-03T12:00:53;99503.97;;;11.68;34.77
5609;BME280;2826;51.354;9.588;2023-04-03T12:03:58;99490.03;;;11.72;34.20
5609;BME280;2826;51.354;9.588;2023-04-03T12:06:58;99500.00;;;12.27;35.17
5609;BME280;2826;51.354;9.588;2023-04-03T12:12:34;99456.44;;;12.69;33.77
5609;BME280;2826;51.354;9.588;2023-04-03T12:15:23;99484.72;;;12.81;33.00
5609;BME280;2826;51.354;9.588;2023-04-03T12:17:50;99483.72;;;12.86;32.98
5609;BME280;2826;51.354;9.588;2023-04-03T12:20:54;99484.78;;;13.10;33.89
5609;BME280;2826;51.354;9.588;2023-04-03T12:23:28;99463.38;;;13.00;32.39
5609;BME280;2826;51.354;9.588;2023-04-03T12:26:01;99481.69;;;12.97;33.05
5609;BME280;2826;51.354;9.588;2023-04-03T12:28:36;99488.63;;;12.66;32.89
5609;BME280;2826;51.354;9.588;2023-04-03T12:31:04;99486.72;;;12.38;33.09
5609;BME280;2826;51.354;9.588;2023-04-03T12:33:38;99487.09;;;12.58;34.26
5609;BME280;2826;51.354;9.588;2023-04-03T12:36:12;99479.06;;;12.65;33.09
5609;BME280;2826;51.354;9.588;2023-04-03T12:38:57;99471.97;;;12.39;33.40
5609;BME280;2826;51.354;9.588;2023-04-03T12:41:36;99471.84;;;11.72;33.69
5609;BME280;2826;51.354;9.588;2023-04-03T12:44:24;99467.31;;;11.00;35.05
5609;BME280;2826;51.354;9.588;2023-04-03T12:46:53;99470.91;;;10.49;35.96
5609;BME280;2826;51.354;9.588;2023-04-03T12:49:33;99468.41;;;9.90;37.00
5609;BME280;2826;51.354;9.588;2023-04-03T12:52:06;99468.38;;;9.92;36.43
5609;BME280;2826;51.354;9.588;2023-04-03T12:54:46;99464.69;;;10.05;36.77
5609;BME280;2826;51.354;9.588;2023-04-03T12:57:17;99461.31;;;10.02;35.67
5609;BME280;2826;51.354;9.588;2023-04-03T12:59:44;99461.28;;;10.03;36.31
5609;BME280;2826;51.354;9.588;2023-04-03T13:02:20;99426.94;;;9.90;36.32
5609;BME280;2826;51.354;9.588;2023-04-03T13:04:48;99451.22;;;10.37;36.11
5609;BME280;2826;51.354;9.588;2023-04-03T13:07:21;99443.31;;;10.90;33.73
5609;BME280;2826;51.354;9.588;2023-04-03T13:09:57;99449.06;;;11.46;34.50
5609;BME280;2826;51.354;9.588;2023-04-03T13:12:25;99443.53;;;11.96;34.12
5609;BME280;2826;51.354;9.588;2023-04-03T13:14:52;99446.97;;;12.33;33.31
5609;BME280;2826;51.354;9.588;2023-04-03T13:17:19;99427.94;;;12.64;32.80
5609;BME280;2826;51.354;9.588;2023-04-03T13:19:47;99442.66;;;12.65;33.16
5609;BME280;2826;51.354;9.588;2023-04-03T13:22:24;99439.91;;;12.38;34.16
5609;BME280;2826;51.354;9.588;2023-04-03T13:24:53;99446.19;;;12.31;34.10
5609;BME280;2826;51.354;9.588;2023-04-03T13:27:22;99443.69;;;11.90;34.82
5609;BME280;2826;51.354;9.588;2023-04-03T13:29:51;99442.97;;;11.85;34.72
5609;BME280;2826;51.354;9.588;2023-04-03T13:32:23;99424.81;;;11.45;34.73
5609;BME280;2826;51.354;9.588;2023-04-03T13:34:51;99431.78;;;11.05;35.94
5609;BME280;2826;51.354;9.588;2023-04-03T13:37:23;99432.84;;;10.93;35.29
5609;BME280;2826;51.354;9.588;2023-04-03T13:39:59;99432.28;;;10.33;35.40
5609;BME280;2826;51.354;9.588;2023-04-03T13:42:29;99432.84;;;10.00;35.62
5609;BME280;2826;51.354;9.588;2023-04-03T13:45:09;99416.03;;;10.22;36.35
5609;BME280;2826;51.354;9.588;2023-04-03T13:47:39;99420.56;;;11.03;35.30
5609;BME280;2826;51.354;9.588;2023-04-03T13:50:15;99424.53;;;11.59;34.64
5609;BME280;2826;51.354;9.588;2023-04-03T13:52:44;99423.09;;;12.19;33.50
5609;BME280;2826;51.354;9.588;2023-04-03T13:55:18;99421.50;;;12.46;33.30
5609;BME280;2826;51.354;9.588;2023-04-03T13:57:53;99419.88;;;12.42;31.52